sensor_id;sensor_type;location;lat;lon;timestamp;P1;durP1;ratioP1;P2;durP2;ratioP2
72087;SDS011;59961;50.232;8.616;2022-10-16T00:00:28;7.43;;;1.90;;
72087;SDS011;59961;50.232;8.616;2022-10-16T00:02:54;4.03;;;1.70;;
72087;SDS011;59961;50.232;8.616;2022-10-16T00:05:20;3.65;;;2.00;;
72087;SDS011;59961;50.232;8.616;2022-10-16T00:07:45;3.28;;;1.70;;
72087;SDS011;59961;50.232;8.616;2022-10-16T00:10:10;5.50;;;1.73;;
72087;SDS011;59961;50.232;8.616;2022-10-16T00:12:35;3.33;;;1.60;;
72087;SDS011;59961;50.232;8.616;2022-10-16T00:15:00;3.93;;;1.30;;
72087;SDS011;59961;50.232;8.616;2022-10-16T00:17:25;6.53;;;1.60;;
72087;SDS011;59961;50.232;8.616;2022-10-16T00:19:51;3.13;;;1.55;;
72087;SDS011;59961;50.232;8.616;2022-10-16T00:22:16;4.30;;;1.80;;
72087;SDS011;59961;50.232;8.616;2022-10-16T00:24:41;4.35;;;2.28;;
72087;SDS011;59961;50.232;8.616;2022-10-16T00:27:06;3.75;;;1.70;;
72087;SDS011;59961;50.232;8.616;2022-10-16T00:29:31;3.97;;;2.20;;
72087;SDS011;59961;50.232;8.616;2022-10-16T00:31:56;7.87;;;2.07;;
72087;SDS011;59961;50.232;8.616;2022-10-16T00:34:21;6.95;;;2.13;;
72087;SDS011;59961;50.232;8.616;2022-10-16T00:36:47;5.83;;;2.30;;
72087;SDS011;59961;50.232;8.616;2022-10-16T00:39:12;5.72;;;2.00;;
72087;SDS011;59961;50.232;8.616;2022-10-16T00:41:37;2.83;;;1.67;;
72087;SDS011;59961;50.232;8.616;2022-10-16T00:44:03;3.75;;;1.80;;
72087;SDS011;59961;50.232;8.616;2022-10-16T00:46:37;3.30;;;1.67;;
72087;SDS011;59961;50.232;8.616;2022-10-16T00:49:04;3.97;;;1.88;;
72087;SDS011;59961;50.232;8.616;2022-10-16T00:51:31;6.13;;;2.30;;
72087;SDS011;59961;50.232;8.616;2022-10-16T00:53:57;4.43;;;2.00;;
72087;SDS011;59961;50.232;8.616;2022-10-16T00:56:22;3.22;;;1.65;;
72087;SDS011;59961;50.232;8.616;2022-10-16T00:58:47;4.60;;;1.90;;
72087;SDS011;59961;50.232;8.616;2022-10-16T01:01:13;3.60;;;2.00;;
72087;SDS011;59961;50.232;8.616;2022-10-16T01:03:38;4.17;;;1.70;;
72087;SDS011;59961;50.232;8.616;2022-10-16T01:06:18;4.73;;;1.93;;
72087;SDS011;59961;50.232;8.616;2022-10-16T01:08:48;4.32;;;1.80;;
72087;SDS011;59961;50.232;8.616;2022-10-16T01:11:18;3.40;;;1.80;;
72087;SDS011;59961;50.232;8.616;2022-10-16T01:13:46;3.20;;;1.83;;
72087;SDS011;59961;50.232;8.616;2022-10-16T01:16:16;8.15;;;1.98;;
72087;SDS011;59961;50.232;8.616;2022-10-16T01:18:43;3.40;;;1.60;;
72087;SDS011;59961;50.232;8.616;2022-10-16T01:21:16;2.78;;;1.60;;
72087;SDS011;59961;50.232;8.616;2022-10-16T01:29:18;3.72;;;1.90;;
72087;SDS011;59961;50.232;8.616;2022-10-16T01:31:47;9.57;;;1.85;;
72087;SDS011;59961;50.232;8.616;2022-10-16T01:34:23;5.68;;;2.33;;
72087;SDS011;59961;50.232;8.616;2022-10-16T01:36:57;6.07;;;2.43;;
72087;SDS011;59961;50.232;8.616;2022-10-16T01:39:26;9.50;;;2.40;;
72087;SDS011;59961;50.232;8.616;2022-10-16T01:42:13;4.10;;;2.40;;
72087;SDS011;59961;50.232;8.616;2022-10-16T01:44:40;5.88;;;2.80;;
72087;SDS011;59961;50.232;8.616;2022-10-16T01:47:07;8.57;;;3.50;;
72087;SDS011;59961;50.232;8.616;2022-10-16T01:49:34;9.57;;;3.00;;
72087;SDS011;59961;50.232;8.616;2022-10-16T01:52:00;9.02;;;3.08;;
72087;SDS011;59961;50.232;8.616;2022-10-16T01:54:27;6.65;;;3.10;;
72087;SDS011;59961;50.232;8.616;2022-10-16T01:56:53;7.32;;;3.72;;
72087;SDS011;59961;50.232;8.616;2022-10-16T01:59:20;9.18;;;3.30;;
72087;SDS011;59961;50.232;8.616;2022-10-16T02:01:47;7.10;;;3.40;;
72087;SDS011;59961;50.232;8.616;2022-10-16T02:04:17;8.73;;;3.80;;
72087;SDS011;59961;50.232;8.616;2022-10-16T02:06:43;7.43;;;3.47;;
72087;SDS011;59961;50.232;8.616;2022-10-16T02:09:08;12.70;;;4.90;;
72087;SDS011;59961;50.232;8.616;2022-10-16T02:11:34;9.13;;;4.37;;
72087;SDS011;59961;50.232;8.616;2022-10-16T02:14:01;13.60;;;4.90;;
72087;SDS011;59961;50.232;8.616;2022-10-16T02:16:34;10.10;;;4.60;;
72087;SDS011;59961;50.232;8.616;2022-10-16T02:19:00;12.90;;;4.28;;
72087;SDS011;59961;50.232;8.616;2022-10-16T02:21:25;10.07;;;4.27;;
72087;SDS011;59961;50.232;8.616;2022-10-16T02:24:03;9.93;;;4.10;;
72087;SDS011;59961;50.232;8.616;2022-10-16T02:26:35;13.00;;;5.13;;
72087;SDS011;59961;50.232;8.616;2022-10-16T02:29:01;16.60;;;7.05;;
72087;SDS011;59961;50.232;8.616;2022-10-16T02:31:30;13.15;;;6.18;;
72087;SDS011;59961;50.232;8.616;2022-10-16T02:33:59;17.00;;;6.47;;
72087;SDS011;59961;50.232;8.616;2022-10-16T02:36:25;14.47;;;6.57;;
72087;SDS011;59961;50.232;8.616;2022-10-16T02:38:50;17.30;;;7.83;;
72087;SDS011;59961;50.232;8.616;2022-10-16T02:41:16;14.73;;;6.22;;
72087;SDS011;59961;50.232;8.616;2022-10-16T02:43:41;16.30;;;7.77;;
72087;SDS011;59961;50.232;8.616;2022-10-16T02:46:08;13.82;;;6.45;;
72087;SDS011;59961;50.232;8.616;2022-10-16T02:48:33;13.57;;;6.82;;
72087;SDS011;59961;50.232;8.616;2022-10-16T02:50:58;14.97;;;6.53;;
72087;SDS011;59961;50.232;8.616;2022-10-16T02:53:23;12.43;;;6.20;;
72087;SDS011;59961;50.232;8.616;2022-10-16T02:55:48;14.30;;;6.33;;
72087;SDS011;59961;50.232;8.616;2022-10-16T02:58:13;15.00;;;7.13;;
72087;SDS011;59961;50.232;8.616;2022-10-16T03:00:39;14.10;;;6.53;;
72087;SDS011;59961;50.232;8.616;2022-10-16T03:03:04;13.27;;;6.35;;
72087;SDS011;59961;50.232;8.616;2022-10-16T03:05:29;13.30;;;6.17;;
72087;SDS011;59961;50.232;8.616;2022-10-16T03:07:54;12.67;;;6.07;;
72087;SDS011;59961;50.232;8.616;2022-10-16T03:10:20;13.30;;;6.10;;
72087;SDS011;59961;50.232;8.616;2022-10-16T03:12:45;14.63;;;6.43;;
72087;SDS011;59961;50.232;8.616;2022-10-16T03:15:10;12.52;;;6.25;;
72087;SDS011;59961;50.232;8.616;2022-10-16T03:17:35;12.07;;;6.43;;
72087;SDS011;59961;50.232;8.616;2022-10-16T03:20:01;11.87;;;6.43;;
72087;SDS011;59961;50.232;8.616;2022-10-16T03:22:26;10.80;;;5.90;;
72087;SDS011;59961;50.232;8.616;2022-10-16T03:24:51;12.07;;;6.17;;
72087;SDS011;59961;50.232;8.616;2022-10-16T03:27:17;9.53;;;5.40;;
72087;SDS011;59961;50.232;8.616;2022-10-16T03:29:42;13.80;;;6.43;;
72087;SDS011;59961;50.232;8.616;2022-10-16T03:32:07;11.10;;;6.43;;
72087;SDS011;59961;50.232;8.616;2022-10-16T03:34:32;11.57;;;5.75;;
72087;SDS011;59961;50.232;8.616;2022-10-16T03:36:57;12.23;;;6.25;;
72087;SDS011;59961;50.232;8.616;2022-10-16T03:39:22;9.97;;;5.17;;
72087;SDS011;59961;50.232;8.616;2022-10-16T03:41:47;9.87;;;5.63;;
72087;SDS011;59961;50.232;8.616;2022-10-16T03:44:13;9.43;;;4.77;;
72087;SDS011;59961;50.232;8.616;2022-10-16T03:46:38;10.97;;;5.60;;
72087;SDS011;59961;50.232;8.616;2022-10-16T03:49:03;9.67;;;5.10;;
72087;SDS011;59961;50.232;8.616;2022-10-16T03:51:29;9.70;;;5.60;;
72087;SDS011;59961;50.232;8.616;2022-10-16T03:53:54;12.00;;;5.30;;
72087;SDS011;59961;50.232;8.616;2022-10-16T03:56:19;8.38;;;4.75;;
72087;SDS011;59961;50.232;8.616;2022-10-16T03:58:44;8.82;;;5.28;;
72087;SDS011;59961;50.232;8.616;2022-10-16T04:01:09;9.98;;;5.38;;
72087;SDS011;59961;50.232;8.616;2022-10-16T04:03:34;11.40;;;5.05;;
72087;SDS011;59961;50.232;8.616;2022-10-16T04:05:59;11.93;;;4.80;;
72087;SDS011;59961;50.232;8.616;2022-10-16T04:08:25;8.90;;;5.33;;
72087;SDS011;59961;50.232;8.616;2022-10-16T04:10:50;11.95;;;5.55;;
72087;SDS011;59961;50.232;8.616;2022-10-16T04:13:15;13.50;;;5.60;;
72087;SDS011;59961;50.232;8.616;2022-10-16T04:15:40;9.70;;;5.40;;
72087;SDS011;59961;50.232;8.616;2022-10-16T04:18:05;10.60;;;5.75;;
72087;SDS011;59961;50.232;8.616;2022-10-16T04:20:31;10.77;;;5.93;;
72087;SDS011;59961;50.232;8.616;2022-10-16T04:22:56;8.80;;;5.37;;
72087;SDS011;59961;50.232;8.616;2022-10-16T04:25:21;9.98;;;4.82;;
72087;SDS011;59961;50.232;8.616;2022-10-16T04:27:46;9.37;;;4.77;;
72087;SDS011;59961;50.232;8.616;2022-10-16T04:30:12;8.73;;;4.93;;
72087;SDS011;59961;50.232;8.616;2022-10-16T04:32:37;9.60;;;4.93;;
72087;SDS011;59961;50.232;8.616;2022-10-16T04:35:02;8.65;;;4.35;;
72087;SDS011;59961;50.232;8.616;2022-10-16T04:37:28;8.67;;;4.10;;
72087;SDS011;59961;50.232;8.616;2022-10-16T04:39:53;5.57;;;3.00;;
72087;SDS011;59961;50.232;8.616;2022-10-16T04:42:19;8.57;;;3.23;;
72087;SDS011;59961;50.232;8.616;2022-10-16T04:44:44;6.47;;;3.22;;
72087;SDS011;59961;50.232;8.616;2022-10-16T04:47:09;6.70;;;3.70;;
72087;SDS011;59961;50.232;8.616;2022-10-16T04:49:34;8.98;;;3.35;;
72087;SDS011;59961;50.232;8.616;2022-10-16T04:51:59;9.13;;;3.63;;
72087;SDS011;59961;50.232;8.616;2022-10-16T04:54:25;7.27;;;3.10;;
72087;SDS011;59961;50.232;8.616;2022-10-16T04:56:50;8.27;;;3.10;;
72087;SDS011;59961;50.232;8.616;2022-10-16T04:59:17;7.97;;;3.53;;
72087;SDS011;59961;50.232;8.616;2022-10-16T05:01:42;6.35;;;2.83;;
72087;SDS011;59961;50.232;8.616;2022-10-16T05:04:08;7.73;;;3.23;;
72087;SDS011;59961;50.232;8.616;2022-10-16T05:06:34;7.13;;;2.97;;
72087;SDS011;59961;50.232;8.616;2022-10-16T05:08:59;5.70;;;2.73;;
72087;SDS011;59961;50.232;8.616;2022-10-16T05:11:24;8.70;;;3.45;;
72087;SDS011;59961;50.232;8.616;2022-10-16T05:13:49;7.30;;;3.03;;
72087;SDS011;59961;50.232;8.616;2022-10-16T05:16:14;5.30;;;2.75;;
72087;SDS011;59961;50.232;8.616;2022-10-16T05:18:39;5.27;;;3.10;;
72087;SDS011;59961;50.232;8.616;2022-10-16T05:21:04;7.25;;;3.45;;
72087;SDS011;59961;50.232;8.616;2022-10-16T05:23:30;7.10;;;2.70;;
72087;SDS011;59961;50.232;8.616;2022-10-16T05:25:56;6.20;;;2.90;;
72087;SDS011;59961;50.232;8.616;2022-10-16T05:28:23;5.40;;;3.00;;
72087;SDS011;59961;50.232;8.616;2022-10-16T05:30:48;6.60;;;2.53;;
72087;SDS011;59961;50.232;8.616;2022-10-16T05:33:13;6.28;;;2.72;;
72087;SDS011;59961;50.232;8.616;2022-10-16T05:35:39;5.97;;;2.80;;
72087;SDS011;59961;50.232;8.616;2022-10-16T05:38:04;6.53;;;3.23;;
72087;SDS011;59961;50.232;8.616;2022-10-16T05:40:29;6.80;;;2.70;;
72087;SDS011;59961;50.232;8.616;2022-10-16T05:42:55;4.90;;;2.72;;
72087;SDS011;59961;50.232;8.616;2022-10-16T05:45:20;7.95;;;3.15;;
72087;SDS011;59961;50.232;8.616;2022-10-16T05:47:45;7.57;;;3.03;;
72087;SDS011;59961;50.232;8.616;2022-10-16T05:50:10;6.23;;;2.90;;
72087;SDS011;59961;50.232;8.616;2022-10-16T05:52:35;6.00;;;2.80;;
72087;SDS011;59961;50.232;8.616;2022-10-16T05:55:01;7.07;;;2.70;;
72087;SDS011;59961;50.232;8.616;2022-10-16T05:57:26;10.27;;;3.77;;
72087;SDS011;59961;50.232;8.616;2022-10-16T05:59:51;6.07;;;2.60;;
72087;SDS011;59961;50.232;8.616;2022-10-16T06:02:16;5.22;;;2.33;;
72087;SDS011;59961;50.232;8.616;2022-10-16T06:04:41;6.83;;;2.93;;
72087;SDS011;59961;50.232;8.616;2022-10-16T06:07:06;4.97;;;2.70;;
72087;SDS011;59961;50.232;8.616;2022-10-16T06:09:32;5.53;;;2.50;;
72087;SDS011;59961;50.232;8.616;2022-10-16T06:11:57;4.93;;;2.73;;
72087;SDS011;59961;50.232;8.616;2022-10-16T06:14:22;5.00;;;2.50;;
72087;SDS011;59961;50.232;8.616;2022-10-16T06:16:47;5.13;;;2.33;;
72087;SDS011;59961;50.232;8.616;2022-10-16T06:19:12;4.50;;;2.50;;
72087;SDS011;59961;50.232;8.616;2022-10-16T06:21:37;4.83;;;2.50;;
72087;SDS011;59961;50.232;8.616;2022-10-16T06:24:03;5.30;;;2.20;;
72087;SDS011;59961;50.232;8.616;2022-10-16T06:26:29;8.97;;;2.63;;
72087;SDS011;59961;50.232;8.616;2022-10-16T06:28:54;4.40;;;2.23;;
72087;SDS011;59961;50.232;8.616;2022-10-16T06:31:20;6.80;;;2.83;;
72087;SDS011;59961;50.232;8.616;2022-10-16T06:33:45;5.50;;;2.90;;
72087;SDS011;59961;50.232;8.616;2022-10-16T06:36:12;5.57;;;2.93;;
72087;SDS011;59961;50.232;8.616;2022-10-16T06:38:38;6.63;;;2.50;;
72087;SDS011;59961;50.232;8.616;2022-10-16T06:41:03;5.80;;;2.60;;
72087;SDS011;59961;50.232;8.616;2022-10-16T06:43:29;6.68;;;2.60;;
72087;SDS011;59961;50.232;8.616;2022-10-16T06:45:58;5.32;;;2.42;;
72087;SDS011;59961;50.232;8.616;2022-10-16T06:48:24;5.53;;;2.60;;
72087;SDS011;59961;50.232;8.616;2022-10-16T06:50:58;5.47;;;2.47;;
72087;SDS011;59961;50.232;8.616;2022-10-16T06:53:24;4.68;;;2.13;;
72087;SDS011;59961;50.232;8.616;2022-10-16T06:55:49;5.60;;;2.30;;
72087;SDS011;59961;50.232;8.616;2022-10-16T06:58:14;5.53;;;2.60;;
72087;SDS011;59961;50.232;8.616;2022-10-16T07:00:39;5.23;;;2.50;;
72087;SDS011;59961;50.232;8.616;2022-10-16T07:03:04;4.27;;;2.40;;
72087;SDS011;59961;50.232;8.616;2022-10-16T07:05:30;5.03;;;2.30;;
72087;SDS011;59961;50.232;8.616;2022-10-16T07:07:55;5.28;;;2.00;;
72087;SDS011;59961;50.232;8.616;2022-10-16T07:10:20;3.58;;;2.10;;
72087;SDS011;59961;50.232;8.616;2022-10-16T07:12:48;4.50;;;2.50;;
72087;SDS011;59961;50.232;8.616;2022-10-16T07:15:14;12.63;;;4.13;;
72087;SDS011;59961;50.232;8.616;2022-10-16T07:17:39;5.85;;;2.33;;
72087;SDS011;59961;50.232;8.616;2022-10-16T07:20:04;3.73;;;2.10;;
72087;SDS011;59961;50.232;8.616;2022-10-16T07:22:29;5.53;;;2.80;;
72087;SDS011;59961;50.232;8.616;2022-10-16T07:24:54;3.90;;;2.10;;
72087;SDS011;59961;50.232;8.616;2022-10-16T07:27:19;7.97;;;4.10;;
72087;SDS011;59961;50.232;8.616;2022-10-16T07:29:47;7.55;;;3.83;;
72087;SDS011;59961;50.232;8.616;2022-10-16T07:32:12;4.97;;;2.45;;
72087;SDS011;59961;50.232;8.616;2022-10-16T07:34:37;6.77;;;2.80;;
72087;SDS011;59961;50.232;8.616;2022-10-16T07:37:02;5.00;;;2.20;;
72087;SDS011;59961;50.232;8.616;2022-10-16T07:39:28;5.20;;;2.20;;
72087;SDS011;59961;50.232;8.616;2022-10-16T07:41:53;5.37;;;2.13;;
72087;SDS011;59961;50.232;8.616;2022-10-16T07:44:18;4.25;;;2.10;;
72087;SDS011;59961;50.232;8.616;2022-10-16T07:46:43;5.20;;;2.23;;
72087;SDS011;59961;50.232;8.616;2022-10-16T07:49:09;5.20;;;2.00;;
72087;SDS011;59961;50.232;8.616;2022-10-16T07:51:34;6.63;;;2.33;;
72087;SDS011;59961;50.232;8.616;2022-10-16T07:53:59;4.50;;;2.40;;
72087;SDS011;59961;50.232;8.616;2022-10-16T07:56:24;6.10;;;2.30;;
72087;SDS011;59961;50.232;8.616;2022-10-16T07:58:50;6.00;;;2.40;;
72087;SDS011;59961;50.232;8.616;2022-10-16T08:01:15;5.67;;;2.80;;
72087;SDS011;59961;50.232;8.616;2022-10-16T08:03:41;7.90;;;2.70;;
72087;SDS011;59961;50.232;8.616;2022-10-16T08:06:07;3.95;;;2.22;;
72087;SDS011;59961;50.232;8.616;2022-10-16T08:08:32;6.57;;;2.67;;
72087;SDS011;59961;50.232;8.616;2022-10-16T08:10:57;5.67;;;2.33;;
72087;SDS011;59961;50.232;8.616;2022-10-16T08:13:23;5.00;;;2.55;;
72087;SDS011;59961;50.232;8.616;2022-10-16T08:15:48;6.10;;;2.30;;
72087;SDS011;59961;50.232;8.616;2022-10-16T08:18:14;7.23;;;2.63;;
72087;SDS011;59961;50.232;8.616;2022-10-16T08:20:39;4.87;;;2.40;;
72087;SDS011;59961;50.232;8.616;2022-10-16T08:23:05;6.55;;;2.90;;
72087;SDS011;59961;50.232;8.616;2022-10-16T08:25:30;4.73;;;2.73;;
72087;SDS011;59961;50.232;8.616;2022-10-16T08:27:59;6.13;;;2.25;;
72087;SDS011;59961;50.232;8.616;2022-10-16T08:30:25;4.63;;;2.10;;
72087;SDS011;59961;50.232;8.616;2022-10-16T08:32:50;7.27;;;2.27;;
72087;SDS011;59961;50.232;8.616;2022-10-16T08:35:15;6.53;;;2.50;;
72087;SDS011;59961;50.232;8.616;2022-10-16T08:37:41;7.43;;;2.13;;
72087;SDS011;59961;50.232;8.616;2022-10-16T08:40:07;6.47;;;2.33;;
72087;SDS011;59961;50.232;8.616;2022-10-16T08:45:26;5.53;;;2.00;;
72087;SDS011;59961;50.232;8.616;2022-10-16T08:48:02;4.18;;;2.33;;
72087;SDS011;59961;50.232;8.616;2022-10-16T08:50:29;7.13;;;2.30;;
72087;SDS011;59961;50.232;8.616;2022-10-16T08:52:55;5.15;;;2.42;;
72087;SDS011;59961;50.232;8.616;2022-10-16T08:55:29;5.13;;;2.22;;
72087;SDS011;59961;50.232;8.616;2022-10-16T08:57:57;4.03;;;2.25;;
72087;SDS011;59961;50.232;8.616;2022-10-16T09:00:23;6.13;;;2.50;;
72087;SDS011;59961;50.232;8.616;2022-10-16T09:05:17;5.00;;;2.43;;
72087;SDS011;59961;50.232;8.616;2022-10-16T09:07:55;6.95;;;2.80;;
72087;SDS011;59961;50.232;8.616;2022-10-16T09:13:11;5.03;;;2.65;;
72087;SDS011;59961;50.232;8.616;2022-10-16T09:15:40;6.53;;;2.53;;
72087;SDS011;59961;50.232;8.616;2022-10-16T09:18:26;5.43;;;2.70;;
72087;SDS011;59961;50.232;8.616;2022-10-16T09:23:30;4.53;;;2.60;;
72087;SDS011;59961;50.232;8.616;2022-10-16T09:25:56;9.10;;;2.63;;
72087;SDS011;59961;50.232;8.616;2022-10-16T09:28:23;6.78;;;2.63;;
72087;SDS011;59961;50.232;8.616;2022-10-16T09:30:48;5.40;;;2.37;;
72087;SDS011;59961;50.232;8.616;2022-10-16T09:33:14;5.20;;;2.70;;
72087;SDS011;59961;50.232;8.616;2022-10-16T09:38:05;5.43;;;2.90;;
72087;SDS011;59961;50.232;8.616;2022-10-16T09:40:35;5.70;;;2.70;;
72087;SDS011;59961;50.232;8.616;2022-10-16T09:45:40;7.75;;;3.20;;
72087;SDS011;59961;50.232;8.616;2022-10-16T09:48:12;5.22;;;2.72;;
72087;SDS011;59961;50.232;8.616;2022-10-16T09:50:37;6.38;;;2.83;;
72087;SDS011;59961;50.232;8.616;2022-10-16T09:53:13;5.90;;;2.60;;
72087;SDS011;59961;50.232;8.616;2022-10-16T09:55:52;5.03;;;2.60;;
72087;SDS011;59961;50.232;8.616;2022-10-16T09:58:17;5.20;;;2.60;;
72087;SDS011;59961;50.232;8.616;2022-10-16T10:00:48;4.27;;;2.63;;
72087;SDS011;59961;50.232;8.616;2022-10-16T10:03:32;6.13;;;2.80;;
72087;SDS011;59961;50.232;8.616;2022-10-16T10:05:58;6.72;;;2.42;;
72087;SDS011;59961;50.232;8.616;2022-10-16T10:08:24;4.63;;;2.20;;
72087;SDS011;59961;50.232;8.616;2022-10-16T10:10:49;4.53;;;2.40;;
72087;SDS011;59961;50.232;8.616;2022-10-16T10:13:21;5.43;;;2.40;;
72087;SDS011;59961;50.232;8.616;2022-10-16T10:15:47;5.23;;;2.70;;
72087;SDS011;59961;50.232;8.616;2022-10-16T10:18:16;4.57;;;2.40;;
72087;SDS011;59961;50.232;8.616;2022-10-16T10:20:42;4.70;;;2.27;;
72087;SDS011;59961;50.232;8.616;2022-10-16T10:23:23;4.90;;;2.50;;
72087;SDS011;59961;50.232;8.616;2022-10-16T10:26:01;4.30;;;2.38;;
72087;SDS011;59961;50.232;8.616;2022-10-16T10:31:16;11.70;;;3.17;;
72087;SDS011;59961;50.232;8.616;2022-10-16T10:36:22;5.97;;;2.20;;
72087;SDS011;59961;50.232;8.616;2022-10-16T10:38:51;5.28;;;2.08;;
72087;SDS011;59961;50.232;8.616;2022-10-16T10:41:38;5.78;;;2.25;;
72087;SDS011;59961;50.232;8.616;2022-10-16T10:44:16;3.92;;;2.30;;
72087;SDS011;59961;50.232;8.616;2022-10-16T10:46:56;4.97;;;2.50;;
72087;SDS011;59961;50.232;8.616;2022-10-16T10:49:28;4.17;;;1.93;;
72087;SDS011;59961;50.232;8.616;2022-10-16T10:52:02;4.95;;;2.33;;
72087;SDS011;59961;50.232;8.616;2022-10-16T10:54:49;5.07;;;2.40;;
72087;SDS011;59961;50.232;8.616;2022-10-16T11:00:20;6.20;;;2.17;;
72087;SDS011;59961;50.232;8.616;2022-10-16T11:02:59;5.00;;;2.57;;
72087;SDS011;59961;50.232;8.616;2022-10-16T11:05:42;4.75;;;2.42;;
72087;SDS011;59961;50.232;8.616;2022-10-16T11:10:53;4.32;;;2.33;;
72087;SDS011;59961;50.232;8.616;2022-10-16T11:13:28;5.35;;;2.15;;
72087;SDS011;59961;50.232;8.616;2022-10-16T11:15:57;5.00;;;2.40;;
72087;SDS011;59961;50.232;8.616;2022-10-16T11:18:24;3.75;;;2.10;;
72087;SDS011;59961;50.232;8.616;2022-10-16T11:20:53;5.68;;;2.13;;
72087;SDS011;59961;50.232;8.616;2022-10-16T11:23:26;4.03;;;2.08;;
72087;SDS011;59961;50.232;8.616;2022-10-16T11:25:53;3.60;;;1.60;;
72087;SDS011;59961;50.232;8.616;2022-10-16T11:28:20;2.57;;;1.40;;
72087;SDS011;59961;50.232;8.616;2022-10-16T11:30:53;5.95;;;2.10;;
72087;SDS011;59961;50.232;8.616;2022-10-16T11:35:47;2.83;;;1.70;;
72087;SDS011;59961;50.232;8.616;2022-10-16T11:38:20;2.40;;;1.50;;
72087;SDS011;59961;50.232;8.616;2022-10-16T11:40:48;4.50;;;1.60;;
72087;SDS011;59961;50.232;8.616;2022-10-16T11:43:19;3.42;;;1.70;;
72087;SDS011;59961;50.232;8.616;2022-10-16T11:45:49;4.05;;;2.00;;
72087;SDS011;59961;50.232;8.616;2022-10-16T11:50:52;4.10;;;2.10;;
72087;SDS011;59961;50.232;8.616;2022-10-16T11:53:23;7.43;;;2.30;;
72087;SDS011;59961;50.232;8.616;2022-10-16T11:55:49;7.13;;;1.88;;
72087;SDS011;59961;50.232;8.616;2022-10-16T11:58:20;3.73;;;2.27;;
72087;SDS011;59961;50.232;8.616;2022-10-16T12:00:51;3.20;;;1.42;;
72087;SDS011;59961;50.232;8.616;2022-10-16T12:03:21;3.92;;;2.00;;
72087;SDS011;59961;50.232;8.616;2022-10-16T12:05:53;3.55;;;1.77;;
72087;SDS011;59961;50.232;8.616;2022-10-16T12:08:19;8.90;;;1.77;;
72087;SDS011;59961;50.232;8.616;2022-10-16T12:10:46;3.20;;;1.77;;
72087;SDS011;59961;50.232;8.616;2022-10-16T12:18:37;2.65;;;1.35;;
72087;SDS011;59961;50.232;8.616;2022-10-16T12:21:02;4.63;;;1.73;;
72087;SDS011;59961;50.232;8.616;2022-10-16T12:23:32;4.37;;;2.03;;
72087;SDS011;59961;50.232;8.616;2022-10-16T12:25:58;3.63;;;2.10;;
72087;SDS011;59961;50.232;8.616;2022-10-16T12:28:27;4.60;;;2.20;;
72087;SDS011;59961;50.232;8.616;2022-10-16T12:30:54;5.82;;;2.70;;
72087;SDS011;59961;50.232;8.616;2022-10-16T12:33:21;4.70;;;2.33;;
72087;SDS011;59961;50.232;8.616;2022-10-16T12:35:47;3.97;;;2.53;;
72087;SDS011;59961;50.232;8.616;2022-10-16T12:38:16;6.03;;;2.67;;
72087;SDS011;59961;50.232;8.616;2022-10-16T12:40:42;4.95;;;2.70;;
72087;SDS011;59961;50.232;8.616;2022-10-16T12:43:12;4.97;;;2.70;;
72087;SDS011;59961;50.232;8.616;2022-10-16T12:45:38;5.20;;;2.67;;
72087;SDS011;59961;50.232;8.616;2022-10-16T12:48:17;3.97;;;2.50;;
72087;SDS011;59961;50.232;8.616;2022-10-16T12:50:42;4.25;;;2.42;;
72087;SDS011;59961;50.232;8.616;2022-10-16T12:53:18;3.20;;;2.10;;
72087;SDS011;59961;50.232;8.616;2022-10-16T12:55:52;3.43;;;2.00;;
72087;SDS011;59961;50.232;8.616;2022-10-16T12:58:31;4.03;;;2.15;;
72087;SDS011;59961;50.232;8.616;2022-10-16T13:01:04;3.42;;;1.73;;
72087;SDS011;59961;50.232;8.616;2022-10-16T13:06:28;3.42;;;2.00;;
72087;SDS011;59961;50.232;8.616;2022-10-16T13:12:12;4.68;;;1.80;;
72087;SDS011;59961;50.232;8.616;2022-10-16T13:14:31;5.80;;;1.83;;
72087;SDS011;59961;50.232;8.616;2022-10-16T13:17:10;2.90;;;1.70;;
72087;SDS011;59961;50.232;8.616;2022-10-16T13:27:40;2.92;;;1.48;;
72087;SDS011;59961;50.232;8.616;2022-10-16T13:30:23;3.80;;;1.33;;
72087;SDS011;59961;50.232;8.616;2022-10-16T13:32:50;3.30;;;1.58;;
72087;SDS011;59961;50.232;8.616;2022-10-16T13:35:18;2.10;;;1.10;;
72087;SDS011;59961;50.232;8.616;2022-10-16T13:37:44;2.30;;;1.38;;
72087;SDS011;59961;50.232;8.616;2022-10-16T13:40:17;3.20;;;1.60;;
72087;SDS011;59961;50.232;8.616;2022-10-16T13:42:43;2.85;;;1.58;;
72087;SDS011;59961;50.232;8.616;2022-10-16T13:45:17;4.00;;;1.50;;
72087;SDS011;59961;50.232;8.616;2022-10-16T13:47:43;4.53;;;1.50;;
72087;SDS011;59961;50.232;8.616;2022-10-16T13:50:11;2.07;;;1.23;;
72087;SDS011;59961;50.232;8.616;2022-10-16T13:52:37;4.68;;;1.65;;
72087;SDS011;59961;50.232;8.616;2022-10-16T13:55:03;2.40;;;1.30;;
72087;SDS011;59961;50.232;8.616;2022-10-16T13:57:28;4.03;;;1.80;;
72087;SDS011;59961;50.232;8.616;2022-10-16T13:59:54;3.93;;;1.70;;
72087;SDS011;59961;50.232;8.616;2022-10-16T14:02:33;2.23;;;1.30;;
72087;SDS011;59961;50.232;8.616;2022-10-16T14:05:00;3.45;;;1.58;;
72087;SDS011;59961;50.232;8.616;2022-10-16T14:07:26;3.88;;;1.30;;
72087;SDS011;59961;50.232;8.616;2022-10-16T14:09:53;4.03;;;1.50;;
72087;SDS011;59961;50.232;8.616;2022-10-16T14:12:19;3.42;;;1.50;;
72087;SDS011;59961;50.232;8.616;2022-10-16T14:14:45;4.00;;;1.40;;
72087;SDS011;59961;50.232;8.616;2022-10-16T14:17:22;4.40;;;1.40;;
72087;SDS011;59961;50.232;8.616;2022-10-16T14:19:48;3.53;;;1.70;;
72087;SDS011;59961;50.232;8.616;2022-10-16T14:22:21;4.72;;;1.27;;
72087;SDS011;59961;50.232;8.616;2022-10-16T14:24:48;3.25;;;1.58;;
72087;SDS011;59961;50.232;8.616;2022-10-16T14:27:28;3.22;;;1.67;;
72087;SDS011;59961;50.232;8.616;2022-10-16T14:32:37;3.45;;;1.80;;
72087;SDS011;59961;50.232;8.616;2022-10-16T14:35:11;4.90;;;1.60;;
72087;SDS011;59961;50.232;8.616;2022-10-16T14:37:46;2.90;;;1.70;;
72087;SDS011;59961;50.232;8.616;2022-10-16T14:40:14;2.92;;;1.52;;
72087;SDS011;59961;50.232;8.616;2022-10-16T14:42:39;3.95;;;1.48;;
72087;SDS011;59961;50.232;8.616;2022-10-16T14:45:08;5.60;;;2.30;;
72087;SDS011;59961;50.232;8.616;2022-10-16T14:47:33;2.77;;;1.80;;
72087;SDS011;59961;50.232;8.616;2022-10-16T14:49:59;4.25;;;1.52;;
72087;SDS011;59961;50.232;8.616;2022-10-16T14:52:24;3.60;;;1.60;;
72087;SDS011;59961;50.232;8.616;2022-10-16T14:54:50;1.92;;;1.17;;
72087;SDS011;59961;50.232;8.616;2022-10-16T14:57:16;2.90;;;1.30;;
72087;SDS011;59961;50.232;8.616;2022-10-16T14:59:41;3.00;;;1.50;;
72087;SDS011;59961;50.232;8.616;2022-10-16T15:02:16;2.95;;;1.23;;
72087;SDS011;59961;50.232;8.616;2022-10-16T15:04:43;2.65;;;1.50;;
72087;SDS011;59961;50.232;8.616;2022-10-16T15:07:08;3.37;;;1.40;;
72087;SDS011;59961;50.232;8.616;2022-10-16T15:09:33;4.07;;;1.63;;
72087;SDS011;59961;50.232;8.616;2022-10-16T15:11:59;2.42;;;1.30;;
72087;SDS011;59961;50.232;8.616;2022-10-16T15:14:24;1.90;;;1.20;;
72087;SDS011;59961;50.232;8.616;2022-10-16T15:16:49;3.70;;;1.50;;
72087;SDS011;59961;50.232;8.616;2022-10-16T15:19:14;2.50;;;1.30;;
72087;SDS011;59961;50.232;8.616;2022-10-16T15:21:39;4.57;;;1.45;;
72087;SDS011;59961;50.232;8.616;2022-10-16T15:24:05;2.60;;;1.37;;
72087;SDS011;59961;50.232;8.616;2022-10-16T15:26:33;2.47;;;1.25;;
72087;SDS011;59961;50.232;8.616;2022-10-16T15:28:58;3.38;;;1.65;;
72087;SDS011;59961;50.232;8.616;2022-10-16T15:31:23;2.80;;;1.50;;
72087;SDS011;59961;50.232;8.616;2022-10-16T15:33:49;3.90;;;1.87;;
72087;SDS011;59961;50.232;8.616;2022-10-16T15:36:23;4.73;;;1.97;;
72087;SDS011;59961;50.232;8.616;2022-10-16T15:38:48;2.60;;;1.73;;
72087;SDS011;59961;50.232;8.616;2022-10-16T15:41:14;3.22;;;1.60;;
72087;SDS011;59961;50.232;8.616;2022-10-16T15:43:39;2.20;;;1.30;;
72087;SDS011;59961;50.232;8.616;2022-10-16T15:46:05;2.83;;;1.65;;